sensor_id;sensor_type;location;lat;lon;timestamp;temperature;humidity
44037;DHT22;62488;-37.670;-63.532;2022-12-29T00:00:54;22.80;42.60
44037;DHT22;62488;-37.670;-63.532;2022-12-29T00:03:21;22.80;42.80
44037;DHT22;62488;-37.670;-63.532;2022-12-29T00:05:55;22.70;43.30
44037;DHT22;62488;-37.670;-63.532;2022-12-29T00:08:22;22.70;42.70
44037;DHT22;62488;-37.670;-63.532;2022-12-29T00:11:16;22.60;43.10
44037;DHT22;62488;-37.670;-63.532;2022-12-29T00:13:47;22.60;43.30
44037;DHT22;62488;-37.670;-63.532;2022-12-29T00:16:32;22.40;43.60
44037;DHT22;62488;-37.670;-63.532;2022-12-29T00:19:00;22.40;43.50
44037;DHT22;62488;-37.670;-63.532;2022-12-29T00:21:27;22.30;43.90
44037;DHT22;62488;-37.670;-63.532;2022-12-29T00:24:20;22.30;43.90
44037;DHT22;62488;-37.670;-63.532;2022-12-29T00:27:14;22.30;44.10
44037;DHT22;62488;-37.670;-63.532;2022-12-29T00:29:59;22.40;44.30
44037;DHT22;62488;-37.670;-63.532;2022-12-29T00:32:44;22.30;44.30
44037;DHT22;62488;-37.670;-63.532;2022-12-29T00:35:34;22.20;44.90
44037;DHT22;62488;-37.670;-63.532;2022-12-29T00:38:06;22.10;45.60
44037;DHT22;62488;-37.670;-63.532;2022-12-29T00:40:52;22.00;45.70
44037;DHT22;62488;-37.670;-63.532;2022-12-29T00:43:37;21.80;45.80
44037;DHT22;62488;-37.670;-63.532;2022-12-29T00:46:22;21.80;46.80
44037;DHT22;62488;-37.670;-63.532;2022-12-29T00:48:49;21.70;46.10
44037;DHT22;62488;-37.670;-63.532;2022-12-29T00:51:34;21.70;46.30
44037;DHT22;62488;-37.670;-63.532;2022-12-29T00:54:01;21.70;46.50
44037;DHT22;62488;-37.670;-63.532;2022-12-29T00:56:28;21.70;46.40
44037;DHT22;62488;-37.670;-63.532;2022-12-29T00:58:55;21.70;46.80
44037;DHT22;62488;-37.670;-63.532;2022-12-29T01:01:22;21.60;46.90
44037;DHT22;62488;-37.670;-63.532;2022-12-29T01:03:49;21.50;47.20
44037;DHT22;62488;-37.670;-63.532;2022-12-29T01:06:16;21.50;47.10
44037;DHT22;62488;-37.670;-63.532;2022-12-29T01:08:43;21.40;47.40
44037;DHT22;62488;-37.670;-63.532;2022-12-29T01:11:11;21.30;47.70
44037;DHT22;62488;-37.670;-63.532;2022-12-29T01:13:39;21.40;47.60
44037;DHT22;62488;-37.670;-63.532;2022-12-29T01:16:08;21.40;47.70
44037;DHT22;62488;-37.670;-63.532;2022-12-29T01:18:35;21.30;47.60
44037;DHT22;62488;-37.670;-63.532;2022-12-29T01:21:06;21.30;47.90
44037;DHT22;62488;-37.670;-63.532;2022-12-29T01:23:34;21.20;48.10
44037;DHT22;62488;-37.670;-63.532;2022-12-29T01:26:11;21.20;48.00
44037;DHT22;62488;-37.670;-63.532;2022-12-29T01:28:38;21.10;48.50
44037;DHT22;62488;-37.670;-63.532;2022-12-29T01:31:13;21.10;48.50
44037;DHT22;62488;-37.670;-63.532;2022-12-29T01:33:42;21.00;48.60
44037;DHT22;62488;-37.670;-63.532;2022-12-29T01:36:14;20.90;48.40
44037;DHT22;62488;-37.670;-63.532;2022-12-29T01:38:42;20.90;48.60
44037;DHT22;62488;-37.670;-63.532;2022-12-29T01:41:11;20.80;48.20
44037;DHT22;62488;-37.670;-63.532;2022-12-29T01:43:59;20.90;48.30
44037;DHT22;62488;-37.670;-63.532;2022-12-29T01:49:05;20.80;47.90
44037;DHT22;62488;-37.670;-63.532;2022-12-29T01:51:38;20.80;48.00
44037;DHT22;62488;-37.670;-63.532;2022-12-29T01:54:11;20.70;47.60
44037;DHT22;62488;-37.670;-63.532;2022-12-29T01:56:39;20.60;47.50
44037;DHT22;62488;-37.670;-63.532;2022-12-29T01:59:12;20.50;47.80
44037;DHT22;62488;-37.670;-63.532;2022-12-29T02:01:42;20.50;48.00
44037;DHT22;62488;-37.670;-63.532;2022-12-29T02:04:11;20.30;48.30
44037;DHT22;62488;-37.670;-63.532;2022-12-29T02:07:17;20.10;49.00
44037;DHT22;62488;-37.670;-63.532;2022-12-29T02:09:36;20.00;49.40
44037;DHT22;62488;-37.670;-63.532;2022-12-29T02:12:04;19.70;50.20
44037;DHT22;62488;-37.670;-63.532;2022-12-29T02:14:31;19.50;51.20
44037;DHT22;62488;-37.670;-63.532;2022-12-29T02:31:58;19.00;54.40
44037;DHT22;62488;-37.670;-63.532;2022-12-29T02:34:42;18.80;55.10
44037;DHT22;62488;-37.670;-63.532;2022-12-29T02:37:56;18.70;55.60
44037;DHT22;62488;-37.670;-63.532;2022-12-29T02:45:51;18.30;57.40
44037;DHT22;62488;-37.670;-63.532;2022-12-29T02:51:15;18.10;58.30
44037;DHT22;62488;-37.670;-63.532;2022-12-29T02:53:45;17.90;58.90
44037;DHT22;62488;-37.670;-63.532;2022-12-29T02:56:30;17.90;59.40
44037;DHT22;62488;-37.670;-63.532;2022-12-29T02:58:57;17.70;59.80
44037;DHT22;62488;-37.670;-63.532;2022-12-29T03:10:25;17.40;61.50
44037;DHT22;62488;-37.670;-63.532;2022-12-29T03:19:08;17.30;62.10
44037;DHT22;62488;-37.670;-63.532;2022-12-29T03:21:39;17.30;61.60
44037;DHT22;62488;-37.670;-63.532;2022-12-29T03:24:36;17.30;62.30
44037;DHT22;62488;-37.670;-63.532;2022-12-29T03:27:06;17.20;62.60
44037;DHT22;62488;-37.670;-63.532;2022-12-29T03:29:39;17.20;62.90
44037;DHT22;62488;-37.670;-63.532;2022-12-29T03:32:09;17.10;63.10
44037;DHT22;62488;-37.670;-63.532;2022-12-29T03:34:38;17.10;63.40
44037;DHT22;62488;-37.670;-63.532;2022-12-29T03:37:15;17.10;63.60
44037;DHT22;62488;-37.670;-63.532;2022-12-29T03:39:43;17.10;64.00
44037;DHT22;62488;-37.670;-63.532;2022-12-29T03:42:14;17.00;64.60
44037;DHT22;62488;-37.670;-63.532;2022-12-29T03:44:44;17.00;64.40
44037;DHT22;62488;-37.670;-63.532;2022-12-29T03:47:12;17.00;64.40
44037;DHT22;62488;-37.670;-63.532;2022-12-29T03:49:40;16.90;64.50
44037;DHT22;62488;-37.670;-63.532;2022-12-29T03:52:07;16.80;64.20
44037;DHT22;62488;-37.670;-63.532;2022-12-29T03:54:34;16.80;64.40
44037;DHT22;62488;-37.670;-63.532;2022-12-29T03:57:01;16.80;64.40
44037;DHT22;62488;-37.670;-63.532;2022-12-29T03:59:28;16.70;64.60
44037;DHT22;62488;-37.670;-63.532;2022-12-29T04:01:55;16.70;64.70
44037;DHT22;62488;-37.670;-63.532;2022-12-29T04:04:22;16.60;65.00
44037;DHT22;62488;-37.670;-63.532;2022-12-29T04:06:49;16.60;65.00
44037;DHT22;62488;-37.670;-63.532;2022-12-29T04:09:16;16.50;65.40
44037;DHT22;62488;-37.670;-63.532;2022-12-29T04:11:43;16.50;65.70
44037;DHT22;62488;-37.670;-63.532;2022-12-29T04:14:10;16.50;66.10
44037;DHT22;62488;-37.670;-63.532;2022-12-29T04:16:37;16.40;66.00
44037;DHT22;62488;-37.670;-63.532;2022-12-29T04:19:05;16.40;66.10
44037;DHT22;62488;-37.670;-63.532;2022-12-29T04:21:33;16.40;65.80
44037;DHT22;62488;-37.670;-63.532;2022-12-29T04:24:00;16.30;66.10
44037;DHT22;62488;-37.670;-63.532;2022-12-29T04:26:27;16.30;66.30
44037;DHT22;62488;-37.670;-63.532;2022-12-29T04:28:54;16.20;66.50
44037;DHT22;62488;-37.670;-63.532;2022-12-29T04:31:21;16.10;67.50
44037;DHT22;62488;-37.670;-63.532;2022-12-29T04:33:48;16.00;68.20
44037;DHT22;62488;-37.670;-63.532;2022-12-29T04:36:15;15.90;68.50
44037;DHT22;62488;-37.670;-63.532;2022-12-29T04:38:42;15.80;69.10
44037;DHT22;62488;-37.670;-63.532;2022-12-29T04:41:09;15.70;69.30
44037;DHT22;62488;-37.670;-63.532;2022-12-29T04:43:36;15.70;69.70
44037;DHT22;62488;-37.670;-63.532;2022-12-29T04:46:03;15.50;70.00
44037;DHT22;62488;-37.670;-63.532;2022-12-29T04:48:30;15.40;70.50
44037;DHT22;62488;-37.670;-63.532;2022-12-29T04:50:57;15.30;71.30
44037;DHT22;62488;-37.670;-63.532;2022-12-29T04:53:23;15.10;72.20
44037;DHT22;62488;-37.670;-63.532;2022-12-29T04:55:51;15.10;72.80
44037;DHT22;62488;-37.670;-63.532;2022-12-29T04:58:19;15.10;73.10
44037;DHT22;62488;-37.670;-63.532;2022-12-29T05:00:47;15.10;73.10
44037;DHT22;62488;-37.670;-63.532;2022-12-29T05:03:14;15.10;73.30
44037;DHT22;62488;-37.670;-63.532;2022-12-29T05:05:41;15.20;73.20
44037;DHT22;62488;-37.670;-63.532;2022-12-29T05:08:08;15.20;73.40
44037;DHT22;62488;-37.670;-63.532;2022-12-29T05:10:35;15.10;73.90
44037;DHT22;62488;-37.670;-63.532;2022-12-29T05:13:02;15.00;74.40
44037;DHT22;62488;-37.670;-63.532;2022-12-29T05:15:29;15.00;74.60
44037;DHT22;62488;-37.670;-63.532;2022-12-29T05:17:56;14.90;74.90
44037;DHT22;62488;-37.670;-63.532;2022-12-29T05:20:23;15.00;74.40
44037;DHT22;62488;-37.670;-63.532;2022-12-29T05:22:50;15.20;73.30
44037;DHT22;62488;-37.670;-63.532;2022-12-29T05:25:17;15.30;73.50
44037;DHT22;62488;-37.670;-63.532;2022-12-29T05:27:43;15.20;73.60
44037;DHT22;62488;-37.670;-63.532;2022-12-29T05:30:11;15.20;73.80
44037;DHT22;62488;-37.670;-63.532;2022-12-29T05:32:38;15.20;73.70
44037;DHT22;62488;-37.670;-63.532;2022-12-29T05:35:05;15.10;74.30
44037;DHT22;62488;-37.670;-63.532;2022-12-29T05:37:32;15.00;75.30
44037;DHT22;62488;-37.670;-63.532;2022-12-29T05:39:59;14.90;76.40
44037;DHT22;62488;-37.670;-63.532;2022-12-29T05:42:26;14.90;76.90
44037;DHT22;62488;-37.670;-63.532;2022-12-29T05:44:53;14.80;77.00
44037;DHT22;62488;-37.670;-63.532;2022-12-29T05:47:20;14.80;77.40
44037;DHT22;62488;-37.670;-63.532;2022-12-29T05:49:47;14.70;77.70
44037;DHT22;62488;-37.670;-63.532;2022-12-29T05:52:14;14.80;78.00
44037;DHT22;62488;-37.670;-63.532;2022-12-29T05:54:41;14.70;78.00
44037;DHT22;62488;-37.670;-63.532;2022-12-29T05:57:08;14.70;78.40
44037;DHT22;62488;-37.670;-63.532;2022-12-29T05:59:36;14.70;78.40
44037;DHT22;62488;-37.670;-63.532;2022-12-29T06:02:03;14.60;78.70
44037;DHT22;62488;-37.670;-63.532;2022-12-29T06:04:29;14.70;79.20
44037;DHT22;62488;-37.670;-63.532;2022-12-29T06:06:56;14.60;79.50
44037;DHT22;62488;-37.670;-63.532;2022-12-29T06:09:23;14.50;80.20
44037;DHT22;62488;-37.670;-63.532;2022-12-29T06:11:50;14.50;79.70
44037;DHT22;62488;-37.670;-63.532;2022-12-29T06:14:17;14.50;79.90
44037;DHT22;62488;-37.670;-63.532;2022-12-29T06:16:44;14.50;80.50
44037;DHT22;62488;-37.670;-63.532;2022-12-29T06:19:11;14.50;80.90
44037;DHT22;62488;-37.670;-63.532;2022-12-29T06:21:38;14.40;81.50
44037;DHT22;62488;-37.670;-63.532;2022-12-29T06:24:06;14.40;82.20
44037;DHT22;62488;-37.670;-63.532;2022-12-29T06:37:10;14.30;82.60
44037;DHT22;62488;-37.670;-63.532;2022-12-29T06:39:37;14.30;86.60
44037;DHT22;62488;-37.670;-63.532;2022-12-29T06:42:04;14.30;87.50
44037;DHT22;62488;-37.670;-63.532;2022-12-29T06:44:31;14.20;88.40
44037;DHT22;62488;-37.670;-63.532;2022-12-29T06:46:58;14.20;89.50
44037;DHT22;62488;-37.670;-63.532;2022-12-29T06:49:25;14.10;90.10
44037;DHT22;62488;-37.670;-63.532;2022-12-29T06:51:52;14.10;90.40
44037;DHT22;62488;-37.670;-63.532;2022-12-29T06:54:19;14.10;90.70
44037;DHT22;62488;-37.670;-63.532;2022-12-29T06:56:46;14.10;90.90
44037;DHT22;62488;-37.670;-63.532;2022-12-29T06:59:13;14.00;91.30
44037;DHT22;62488;-37.670;-63.532;2022-12-29T07:01:40;14.00;92.00
44037;DHT22;62488;-37.670;-63.532;2022-12-29T07:04:07;13.90;92.20
44037;DHT22;62488;-37.670;-63.532;2022-12-29T07:06:34;13.90;92.60
44037;DHT22;62488;-37.670;-63.532;2022-12-29T07:09:01;13.90;93.00
44037;DHT22;62488;-37.670;-63.532;2022-12-29T07:11:28;13.80;93.50
44037;DHT22;62488;-37.670;-63.532;2022-12-29T07:13:54;13.80;93.90
44037;DHT22;62488;-37.670;-63.532;2022-12-29T07:16:22;13.70;94.20
44037;DHT22;62488;-37.670;-63.532;2022-12-29T07:18:49;13.70;94.60
44037;DHT22;62488;-37.670;-63.532;2022-12-29T07:21:16;13.70;95.00
44037;DHT22;62488;-37.670;-63.532;2022-12-29T07:23:43;13.60;95.50
44037;DHT22;62488;-37.670;-63.532;2022-12-29T07:26:12;13.70;96.00
44037;DHT22;62488;-37.670;-63.532;2022-12-29T07:28:39;13.60;96.40
44037;DHT22;62488;-37.670;-63.532;2022-12-29T07:31:18;13.60;96.90
44037;DHT22;62488;-37.670;-63.532;2022-12-29T07:33:45;13.60;97.20
44037;DHT22;62488;-37.670;-63.532;2022-12-29T07:36:13;13.70;97.60
44037;DHT22;62488;-37.670;-63.532;2022-12-29T07:38:40;13.70;97.80
44037;DHT22;62488;-37.670;-63.532;2022-12-29T07:41:08;13.70;98.10
44037;DHT22;62488;-37.670;-63.532;2022-12-29T07:43:35;13.70;98.40
44037;DHT22;62488;-37.670;-63.532;2022-12-29T07:46:02;13.60;98.80
44037;DHT22;62488;-37.670;-63.532;2022-12-29T07:48:29;13.50;99.10
44037;DHT22;62488;-37.670;-63.532;2022-12-29T07:50:56;13.60;99.50
44037;DHT22;62488;-37.670;-63.532;2022-12-29T07:53:23;13.50;99.70
44037;DHT22;62488;-37.670;-63.532;2022-12-29T07:55:50;13.50;99.90
44037;DHT22;62488;-37.670;-63.532;2022-12-29T07:58:17;13.50;99.90
44037;DHT22;62488;-37.670;-63.532;2022-12-29T08:00:44;13.50;99.90
44037;DHT22;62488;-37.670;-63.532;2022-12-29T08:03:11;13.50;99.90
44037;DHT22;62488;-37.670;-63.532;2022-12-29T08:05:38;13.50;99.90
44037;DHT22;62488;-37.670;-63.532;2022-12-29T08:08:05;13.50;99.90
44037;DHT22;62488;-37.670;-63.532;2022-12-29T08:10:32;13.50;99.90
44037;DHT22;62488;-37.670;-63.532;2022-12-29T08:12:59;13.50;99.90
44037;DHT22;62488;-37.670;-63.532;2022-12-29T08:15:26;13.40;99.90
44037;DHT22;62488;-37.670;-63.532;2022-12-29T08:17:53;13.50;99.90
44037;DHT22;62488;-37.670;-63.532;2022-12-29T08:20:20;13.50;99.90
44037;DHT22;62488;-37.670;-63.532;2022-12-29T08:22:47;13.50;99.90
44037;DHT22;62488;-37.670;-63.532;2022-12-29T08:36:15;13.50;99.90
44037;DHT22;62488;-37.670;-63.532;2022-12-29T08:38:42;13.40;99.90
44037;DHT22;62488;-37.670;-63.532;2022-12-29T08:41:09;13.40;99.90
44037;DHT22;62488;-37.670;-63.532;2022-12-29T08:43:36;13.40;99.90
44037;DHT22;62488;-37.670;-63.532;2022-12-29T08:46:03;13.30;99.90
44037;DHT22;62488;-37.670;-63.532;2022-12-29T08:48:30;13.30;99.90
44037;DHT22;62488;-37.670;-63.532;2022-12-29T08:50:57;13.30;99.90
44037;DHT22;62488;-37.670;-63.532;2022-12-29T08:53:24;13.20;99.90
44037;DHT22;62488;-37.670;-63.532;2022-12-29T08:55:59;13.20;99.90
44037;DHT22;62488;-37.670;-63.532;2022-12-29T08:58:27;13.20;99.90
44037;DHT22;62488;-37.670;-63.532;2022-12-29T09:00:58;13.20;99.90
44037;DHT22;62488;-37.670;-63.532;2022-12-29T09:03:27;13.20;99.90
44037;DHT22;62488;-37.670;-63.532;2022-12-29T09:05:54;13.30;99.90
44037;DHT22;62488;-37.670;-63.532;2022-12-29T09:08:22;13.20;99.90
44037;DHT22;62488;-37.670;-63.532;2022-12-29T09:10:49;13.20;99.90
44037;DHT22;62488;-37.670;-63.532;2022-12-29T09:13:17;13.30;99.90
44037;DHT22;62488;-37.670;-63.532;2022-12-29T09:15:44;13.20;99.90
44037;DHT22;62488;-37.670;-63.532;2022-12-29T09:18:12;13.30;99.90
44037;DHT22;62488;-37.670;-63.532;2022-12-29T09:20:39;13.20;99.90
44037;DHT22;62488;-37.670;-63.532;2022-12-29T09:23:06;13.30;99.90
44037;DHT22;62488;-37.670;-63.532;2022-12-29T09:25:33;13.30;99.90
44037;DHT22;62488;-37.670;-63.532;2022-12-29T09:28:00;13.40;99.90
44037;DHT22;62488;-37.670;-63.532;2022-12-29T09:30:32;13.50;99.90
44037;DHT22;62488;-37.670;-63.532;2022-12-29T09:32:59;13.60;99.90
44037;DHT22;62488;-37.670;-63.532;2022-12-29T09:35:25;13.50;99.90
44037;DHT22;62488;-37.670;-63.532;2022-12-29T09:37:52;13.60;99.90
44037;DHT22;62488;-37.670;-63.532;2022-12-29T09:40:27;13.70;99.90
44037;DHT22;62488;-37.670;-63.532;2022-12-29T09:45:47;13.90;99.90
44037;DHT22;62488;-37.670;-63.532;2022-12-29T09:48:20;14.00;99.90
44037;DHT22;62488;-37.670;-63.532;2022-12-29T09:50:52;14.00;99.90
44037;DHT22;62488;-37.670;-63.532;2022-12-29T09:53:25;14.10;99.90
44037;DHT22;62488;-37.670;-63.532;2022-12-29T09:55:55;14.20;99.90
44037;DHT22;62488;-37.670;-63.532;2022-12-29T10:01:44;14.40;99.90
44037;DHT22;62488;-37.670;-63.532;2022-12-29T10:04:02;14.50;99.90
44037;DHT22;62488;-37.670;-63.532;2022-12-29T10:06:42;14.60;99.90
44037;DHT22;62488;-37.670;-63.532;2022-12-29T10:17:34;15.10;98.80
44037;DHT22;62488;-37.670;-63.532;2022-12-29T10:25:34;15.60;98.70
44037;DHT22;62488;-37.670;-63.532;2022-12-29T10:28:10;15.70;98.40
44037;DHT22;62488;-37.670;-63.532;2022-12-29T10:30:40;15.90;98.30
44037;DHT22;62488;-37.670;-63.532;2022-12-29T10:33:14;15.90;97.60
44037;DHT22;62488;-37.670;-63.532;2022-12-29T10:35:42;16.10;97.20
44037;DHT22;62488;-37.670;-63.532;2022-12-29T10:38:25;16.20;96.90
44037;DHT22;62488;-37.670;-63.532;2022-12-29T10:43:47;16.40;95.90
44037;DHT22;62488;-37.670;-63.532;2022-12-29T10:46:34;16.60;95.60
44037;DHT22;62488;-37.670;-63.532;2022-12-29T10:49:04;16.80;94.90
44037;DHT22;62488;-37.670;-63.532;2022-12-29T10:51:36;16.80;94.50
44037;DHT22;62488;-37.670;-63.532;2022-12-29T10:54:29;16.90;94.70
44037;DHT22;62488;-37.670;-63.532;2022-12-29T10:57:05;17.00;94.30
44037;DHT22;62488;-37.670;-63.532;2022-12-29T10:59:36;17.10;94.30
44037;DHT22;62488;-37.670;-63.532;2022-12-29T11:07:04;17.50;93.40
44037;DHT22;62488;-37.670;-63.532;2022-12-29T11:09:35;17.60;93.20
44037;DHT22;62488;-37.670;-63.532;2022-12-29T11:12:25;17.80;92.90
44037;DHT22;62488;-37.670;-63.532;2022-12-29T11:18:04;18.00;92.60
44037;DHT22;62488;-37.670;-63.532;2022-12-29T11:20:38;18.30;92.50
44037;DHT22;62488;-37.670;-63.532;2022-12-29T11:23:34;18.40;92.20
44037;DHT22;62488;-37.670;-63.532;2022-12-29T11:28:38;18.80;91.80
44037;DHT22;62488;-37.670;-63.532;2022-12-29T11:31:07;18.90;91.60
44037;DHT22;62488;-37.670;-63.532;2022-12-29T11:33:36;19.10;91.50
44037;DHT22;62488;-37.670;-63.532;2022-12-29T11:36:22;19.00;91.20
44037;DHT22;62488;-37.670;-63.532;2022-12-29T11:38:54;19.10;91.30
44037;DHT22;62488;-37.670;-63.532;2022-12-29T11:41:29;19.30;91.40
44037;DHT22;62488;-37.670;-63.532;2022-12-29T11:44:00;19.40;91.20
44037;DHT22;62488;-37.670;-63.532;2022-12-29T11:46:31;19.30;91.20
44037;DHT22;62488;-37.670;-63.532;2022-12-29T11:48:59;19.20;91.10
44037;DHT22;62488;-37.670;-63.532;2022-12-29T11:54:29;19.80;90.40
44037;DHT22;62488;-37.670;-63.532;2022-12-29T11:56:58;20.00;89.40
44037;DHT22;62488;-37.670;-63.532;2022-12-29T12:04:45;20.90;86.50
44037;DHT22;62488;-37.670;-63.532;2022-12-29T12:07:23;21.00;85.40
44037;DHT22;62488;-37.670;-63.532;2022-12-29T12:09:58;21.40;83.80
44037;DHT22;62488;-37.670;-63.532;2022-12-29T12:12:47;21.40;81.80
44037;DHT22;62488;-37.670;-63.532;2022-12-29T12:15:30;21.40;80.50
44037;DHT22;62488;-37.670;-63.532;2022-12-29T12:18:05;21.80;78.00
44037;DHT22;62488;-37.670;-63.532;2022-12-29T12:20:46;21.70;77.70
44037;DHT22;62488;-37.670;-63.532;2022-12-29T12:26:14;22.00;75.60
44037;DHT22;62488;-37.670;-63.532;2022-12-29T12:34:29;22.60;71.20
44037;DHT22;62488;-37.670;-63.532;2022-12-29T12:42:56;22.60;68.80
44037;DHT22;62488;-37.670;-63.532;2022-12-29T12:45:49;22.50;68.60
44037;DHT22;62488;-37.670;-63.532;2022-12-29T12:52:14;23.10;67.90
44037;DHT22;62488;-37.670;-63.532;2022-12-29T13:00:08;23.30;66.00
44037;DHT22;62488;-37.670;-63.532;2022-12-29T13:04:12;23.80;65.40
44037;DHT22;62488;-37.670;-63.532;2022-12-29T13:06:28;24.30;61.80
44037;DHT22;62488;-37.670;-63.532;2022-12-29T13:22:48;25.00;58.30
44037;DHT22;62488;-37.670;-63.532;2022-12-29T13:25:32;25.40;55.70
44037;DHT22;62488;-37.670;-63.532;2022-12-29T13:28:49;25.60;56.10
44037;DHT22;62488;-37.670;-63.532;2022-12-29T13:33:49;26.00;54.30
44037;DHT22;62488;-37.670;-63.532;2022-12-29T13:36:26;26.20;53.10
44037;DHT22;62488;-37.670;-63.532;2022-12-29T13:42:03;26.50;51.90
44037;DHT22;62488;-37.670;-63.532;2022-12-29T13:44:35;26.70;51.50
44037;DHT22;62488;-37.670;-63.532;2022-12-29T13:47:27;26.90;51.10
44037;DHT22;62488;-37.670;-63.532;2022-12-29T13:49:57;26.90;49.60
44037;DHT22;62488;-37.670;-63.532;2022-12-29T13:52:39;27.30;49.50
44037;DHT22;62488;-37.670;-63.532;2022-12-29T13:55:25;27.40;48.50
44037;DHT22;62488;-37.670;-63.532;2022-12-29T14:03:47;28.20;46.10
44037;DHT22;62488;-37.670;-63.532;2022-12-29T14:08:48;28.60;45.20
44037;DHT22;62488;-37.670;-63.532;2022-12-29T14:11:20;28.40;45.20
44037;DHT22;62488;-37.670;-63.532;2022-12-29T14:13:48;29.00;45.80
44037;DHT22;62488;-37.670;-63.532;2022-12-29T14:16:33;29.50;45.10
44037;DHT22;62488;-37.670;-63.532;2022-12-29T14:19:26;29.40;43.60
44037;DHT22;62488;-37.670;-63.532;2022-12-29T14:22:00;29.30;42.70
44037;DHT22;62488;-37.670;-63.532;2022-12-29T14:29:50;29.70;41.80
44037;DHT22;62488;-37.670;-63.532;2022-12-29T14:34:54;30.10;40.50
44037;DHT22;62488;-37.670;-63.532;2022-12-29T14:37:28;30.00;40.70
44037;DHT22;62488;-37.670;-63.532;2022-12-29T14:40:23;30.20;40.90
44037;DHT22;62488;-37.670;-63.532;2022-12-29T14:43:20;30.20;39.50
44037;DHT22;62488;-37.670;-63.532;2022-12-29T14:46:00;30.40;40.10
44037;DHT22;62488;-37.670;-63.532;2022-12-29T14:48:39;30.40;39.60
44037;DHT22;62488;-37.670;-63.532;2022-12-29T14:51:34;30.60;40.10
44037;DHT22;62488;-37.670;-63.532;2022-12-29T14:57:06;31.10;36.70
44037;DHT22;62488;-37.670;-63.532;2022-12-29T14:59:35;31.50;37.00
44037;DHT22;62488;-37.670;-63.532;2022-12-29T15:02:12;31.40;37.30
44037;DHT22;62488;-37.670;-63.532;2022-12-29T15:04:40;31.80;36.40
44037;DHT22;62488;-37.670;-63.532;2022-12-29T15:07:09;32.00;36.40
44037;DHT22;62488;-37.670;-63.532;2022-12-29T15:09:52;32.10;36.20
44037;DHT22;62488;-37.670;-63.532;2022-12-29T15:12:52;32.00;35.00
44037;DHT22;62488;-37.670;-63.532;2022-12-29T15:15:26;32.40;35.20
44037;DHT22;62488;-37.670;-63.532;2022-12-29T15:17:53;32.50;33.80
44037;DHT22;62488;-37.670;-63.532;2022-12-29T15:20:31;32.50;32.00
44037;DHT22;62488;-37.670;-63.532;2022-12-29T15:23:02;32.60;33.20
44037;DHT22;62488;-37.670;-63.532;2022-12-29T15:25:30;32.90;32.40
44037;DHT22;62488;-37.670;-63.532;2022-12-29T15:28:04;32.80;30.60
44037;DHT22;62488;-37.670;-63.532;2022-12-29T15:30:33;32.90;32.00
44037;DHT22;62488;-37.670;-63.532;2022-12-29T15:33:00;32.40;31.50
44037;DHT22;62488;-37.670;-63.532;2022-12-29T15:35:34;33.00;32.70
44037;DHT22;62488;-37.670;-63.532;2022-12-29T15:38:14;33.20;31.50
44037;DHT22;62488;-37.670;-63.532;2022-12-29T15:40:44;33.40;32.10
44037;DHT22;62488;-37.670;-63.532;2022-12-29T15:46:02;33.00;30.90
44037;DHT22;62488;-37.670;-63.532;2022-12-29T15:48:31;33.00;31.90
44037;DHT22;62488;-37.670;-63.532;2022-12-29T15:50:58;33.10;31.60
44037;DHT22;62488;-37.670;-63.532;2022-12-29T15:53:28;33.10;31.40
44037;DHT22;62488;-37.670;-63.532;2022-12-29T15:56:00;33.90;31.00
44037;DHT22;62488;-37.670;-63.532;2022-12-29T15:58:29;34.10;30.00
44037;DHT22;62488;-37.670;-63.532;2022-12-29T16:00:59;34.00;30.20
44037;DHT22;62488;-37.670;-63.532;2022-12-29T16:03:33;33.40;30.10
44037;DHT22;62488;-37.670;-63.532;2022-12-29T16:06:30;33.40;30.80
44037;DHT22;62488;-37.670;-63.532;2022-12-29T16:09:14;33.80;31.50
44037;DHT22;62488;-37.670;-63.532;2022-12-29T16:11:51;34.30;30.70
44037;DHT22;62488;-37.670;-63.532;2022-12-29T16:14:28;34.50;30.20
44037;DHT22;62488;-37.670;-63.532;2022-12-29T16:17:00;34.40;30.10
44037;DHT22;62488;-37.670;-63.532;2022-12-29T16:19:33;34.50;29.80
44037;DHT22;62488;-37.670;-63.532;2022-12-29T16:22:01;34.50;30.20
44037;DHT22;62488;-37.670;-63.532;2022-12-29T16:24:33;34.80;30.00
44037;DHT22;62488;-37.670;-63.532;2022-12-29T16:27:09;34.20;29.30
44037;DHT22;62488;-37.670;-63.532;2022-12-29T16:29:40;34.40;29.40
44037;DHT22;62488;-37.670;-63.532;2022-12-29T16:32:25;34.50;29.20
44037;DHT22;62488;-37.670;-63.532;2022-12-29T16:35:16;34.50;29.50
44037;DHT22;62488;-37.670;-63.532;2022-12-29T16:37:44;34.60;29.40
44037;DHT22;62488;-37.670;-63.532;2022-12-29T16:43:01;34.70;29.30
44037;DHT22;62488;-37.670;-63.532;2022-12-29T16:48:19;35.20;29.00
44037;DHT22;62488;-37.670;-63.532;2022-12-29T16:50:47;34.90;29.20
44037;DHT22;62488;-37.670;-63.532;2022-12-29T16:53:32;35.50;29.10
44037;DHT22;62488;-37.670;-63.532;2022-12-29T16:56:08;35.10;29.20
44037;DHT22;62488;-37.670;-63.532;2022-12-29T16:58:39;34.70;29.30
44037;DHT22;62488;-37.670;-63.532;2022-12-29T17:01:07;34.90;29.00
44037;DHT22;62488;-37.670;-63.532;2022-12-29T17:03:44;35.10;29.20
44037;DHT22;62488;-37.670;-63.532;2022-12-29T17:06:20;35.80;29.50
44037;DHT22;62488;-37.670;-63.532;2022-12-29T17:08:48;35.50;29.00
44037;DHT22;62488;-37.670;-63.532;2022-12-29T17:11:33;36.00;29.50
44037;DHT22;62488;-37.670;-63.532;2022-12-29T17:14:33;35.10;28.50
44037;DHT22;62488;-37.670;-63.532;2022-12-29T17:17:46;35.10;29.60
44037;DHT22;62488;-37.670;-63.532;2022-12-29T17:19:51;35.60;28.60
44037;DHT22;62488;-37.670;-63.532;2022-12-29T17:22:22;36.00;28.40
44037;DHT22;62488;-37.670;-63.532;2022-12-29T17:24:54;35.70;28.10
44037;DHT22;62488;-37.670;-63.532;2022-12-29T17:27:30;35.70;28.20
44037;DHT22;62488;-37.670;-63.532;2022-12-29T17:30:03;35.70;28.50
44037;DHT22;62488;-37.670;-63.532;2022-12-29T17:32:32;35.70;28.50
44037;DHT22;62488;-37.670;-63.532;2022-12-29T17:34:59;35.70;28.10
44037;DHT22;62488;-37.670;-63.532;2022-12-29T17:37:32;35.90;28.80
44037;DHT22;62488;-37.670;-63.532;2022-12-29T17:39:59;35.50;28.20
44037;DHT22;62488;-37.670;-63.532;2022-12-29T17:42:29;35.90;28.30
44037;DHT22;62488;-37.670;-63.532;2022-12-29T17:45:00;35.90;28.60
44037;DHT22;62488;-37.670;-63.532;2022-12-29T17:47:26;36.10;28.20
44037;DHT22;62488;-37.670;-63.532;2022-12-29T17:49:53;36.10;28.20
44037;DHT22;62488;-37.670;-63.532;2022-12-29T17:52:20;36.20;27.90
44037;DHT22;62488;-37.670;-63.532;2022-12-29T17:54:50;36.60;28.10
44037;DHT22;62488;-37.670;-63.532;2022-12-29T17:57:19;36.80;27.90
44037;DHT22;62488;-37.670;-63.532;2022-12-29T17:59:47;36.90;28.60
44037;DHT22;62488;-37.670;-63.532;2022-12-29T18:02:28;36.30;27.70
44037;DHT22;62488;-37.670;-63.532;2022-12-29T18:04:56;36.20;28.10
44037;DHT22;62488;-37.670;-63.532;2022-12-29T18:07:27;36.30;28.10
44037;DHT22;62488;-37.670;-63.532;2022-12-29T18:09:55;36.90;28.30
44037;DHT22;62488;-37.670;-63.532;2022-12-29T18:12:29;37.30;28.00